sensor_id;sensor_type;location;lat;lon;timestamp;P1;durP1;ratioP1;P2;durP2;ratioP2
28728;SDS011;15894;50.452;30.446;2022-07-06T00:01:18;6.68;;;3.20;;
28728;SDS011;15894;50.452;30.446;2022-07-06T00:03:45;13.07;;;3.30;;
28728;SDS011;15894;50.452;30.446;2022-07-06T00:06:11;5.15;;;3.25;;
28728;SDS011;15894;50.452;30.446;2022-07-06T00:08:37;6.95;;;3.45;;
28728;SDS011;15894;50.452;30.446;2022-07-06T00:11:03;7.05;;;3.33;;
28728;SDS011;15894;50.452;30.446;2022-07-06T00:13:29;6.43;;;3.38;;
28728;SDS011;15894;50.452;30.446;2022-07-06T00:15:55;5.15;;;3.10;;
28728;SDS011;15894;50.452;30.446;2022-07-06T00:18:21;8.43;;;3.45;;
28728;SDS011;15894;50.452;30.446;2022-07-06T00:20:46;8.68;;;3.50;;
28728;SDS011;15894;50.452;30.446;2022-07-06T00:23:12;6.00;;;3.72;;
28728;SDS011;15894;50.452;30.446;2022-07-06T00:25:37;6.03;;;3.60;;
28728;SDS011;15894;50.452;30.446;2022-07-06T00:28:03;6.68;;;3.63;;
28728;SDS011;15894;50.452;30.446;2022-07-06T00:30:29;6.55;;;3.60;;
28728;SDS011;15894;50.452;30.446;2022-07-06T00:32:55;6.15;;;3.38;;
28728;SDS011;15894;50.452;30.446;2022-07-06T00:35:23;7.10;;;3.53;;
28728;SDS011;15894;50.452;30.446;2022-07-06T00:37:49;10.52;;;3.60;;
28728;SDS011;15894;50.452;30.446;2022-07-06T00:40:14;11.32;;;3.70;;
28728;SDS011;15894;50.452;30.446;2022-07-06T00:42:41;7.97;;;3.50;;
28728;SDS011;15894;50.452;30.446;2022-07-06T00:45:07;8.45;;;3.80;;
28728;SDS011;15894;50.452;30.446;2022-07-06T00:47:34;6.68;;;3.83;;
28728;SDS011;15894;50.452;30.446;2022-07-06T00:50:00;5.82;;;3.22;;
28728;SDS011;15894;50.452;30.446;2022-07-06T00:52:38;5.78;;;3.50;;
28728;SDS011;15894;50.452;30.446;2022-07-06T00:55:05;14.43;;;3.90;;
28728;SDS011;15894;50.452;30.446;2022-07-06T00:57:31;8.38;;;3.70;;
28728;SDS011;15894;50.452;30.446;2022-07-06T00:59:57;6.00;;;3.60;;
28728;SDS011;15894;50.452;30.446;2022-07-06T01:02:23;6.70;;;3.55;;
28728;SDS011;15894;50.452;30.446;2022-07-06T01:04:49;11.85;;;4.43;;
28728;SDS011;15894;50.452;30.446;2022-07-06T01:07:15;14.60;;;3.92;;
28728;SDS011;15894;50.452;30.446;2022-07-06T01:09:41;5.55;;;3.83;;
28728;SDS011;15894;50.452;30.446;2022-07-06T01:12:07;4.38;;;3.40;;
28728;SDS011;15894;50.452;30.446;2022-07-06T01:14:33;6.43;;;3.67;;
28728;SDS011;15894;50.452;30.446;2022-07-06T01:17:00;12.25;;;4.10;;
28728;SDS011;15894;50.452;30.446;2022-07-06T01:19:28;5.35;;;3.67;;
28728;SDS011;15894;50.452;30.446;2022-07-06T01:21:54;5.72;;;4.10;;
28728;SDS011;15894;50.452;30.446;2022-07-06T01:24:21;7.00;;;4.20;;
28728;SDS011;15894;50.452;30.446;2022-07-06T01:26:47;12.48;;;4.47;;
28728;SDS011;15894;50.452;30.446;2022-07-06T01:29:13;6.05;;;4.28;;
28728;SDS011;15894;50.452;30.446;2022-07-06T01:31:48;7.82;;;3.90;;
28728;SDS011;15894;50.452;30.446;2022-07-06T01:34:18;10.20;;;4.03;;
28728;SDS011;15894;50.452;30.446;2022-07-06T01:36:44;9.35;;;3.70;;
28728;SDS011;15894;50.452;30.446;2022-07-06T01:39:11;7.85;;;3.83;;
28728;SDS011;15894;50.452;30.446;2022-07-06T01:41:37;6.45;;;4.18;;
28728;SDS011;15894;50.452;30.446;2022-07-06T01:44:03;10.00;;;3.85;;
28728;SDS011;15894;50.452;30.446;2022-07-06T01:46:29;8.27;;;4.03;;
28728;SDS011;15894;50.452;30.446;2022-07-06T01:48:55;8.07;;;4.00;;
28728;SDS011;15894;50.452;30.446;2022-07-06T01:51:21;5.97;;;3.72;;
28728;SDS011;15894;50.452;30.446;2022-07-06T01:53:48;9.45;;;3.53;;
28728;SDS011;15894;50.452;30.446;2022-07-06T01:56:14;5.18;;;3.88;;
28728;SDS011;15894;50.452;30.446;2022-07-06T01:58:39;7.45;;;3.80;;
28728;SDS011;15894;50.452;30.446;2022-07-06T02:01:12;5.85;;;3.47;;
28728;SDS011;15894;50.452;30.446;2022-07-06T02:03:41;6.70;;;4.15;;
28728;SDS011;15894;50.452;30.446;2022-07-06T02:06:07;6.15;;;3.60;;
28728;SDS011;15894;50.452;30.446;2022-07-06T02:08:34;6.55;;;3.60;;
28728;SDS011;15894;50.452;30.446;2022-07-06T02:11:01;7.72;;;3.60;;
28728;SDS011;15894;50.452;30.446;2022-07-06T02:13:27;10.18;;;4.43;;
28728;SDS011;15894;50.452;30.446;2022-07-06T02:15:53;8.52;;;4.03;;
28728;SDS011;15894;50.452;30.446;2022-07-06T02:18:18;10.43;;;3.72;;
28728;SDS011;15894;50.452;30.446;2022-07-06T02:20:45;7.40;;;3.40;;
28728;SDS011;15894;50.452;30.446;2022-07-06T02:23:11;12.18;;;4.20;;
28728;SDS011;15894;50.452;30.446;2022-07-06T02:25:36;6.82;;;3.83;;
28728;SDS011;15894;50.452;30.446;2022-07-06T02:28:02;10.50;;;4.10;;
28728;SDS011;15894;50.452;30.446;2022-07-06T02:30:27;7.03;;;3.72;;
28728;SDS011;15894;50.452;30.446;2022-07-06T02:32:53;5.63;;;3.50;;
28728;SDS011;15894;50.452;30.446;2022-07-06T02:35:19;10.45;;;3.95;;
28728;SDS011;15894;50.452;30.446;2022-07-06T02:37:44;6.97;;;3.80;;
28728;SDS011;15894;50.452;30.446;2022-07-06T02:40:10;4.68;;;3.22;;
28728;SDS011;15894;50.452;30.446;2022-07-06T02:42:36;10.10;;;3.90;;
28728;SDS011;15894;50.452;30.446;2022-07-06T02:45:02;6.80;;;3.40;;
28728;SDS011;15894;50.452;30.446;2022-07-06T02:47:28;7.40;;;3.70;;
28728;SDS011;15894;50.452;30.446;2022-07-06T02:49:54;5.93;;;3.63;;
28728;SDS011;15894;50.452;30.446;2022-07-06T02:52:19;6.28;;;3.45;;
28728;SDS011;15894;50.452;30.446;2022-07-06T02:54:45;5.05;;;3.70;;
28728;SDS011;15894;50.452;30.446;2022-07-06T02:57:11;7.50;;;3.45;;
28728;SDS011;15894;50.452;30.446;2022-07-06T02:59:37;6.10;;;3.45;;
28728;SDS011;15894;50.452;30.446;2022-07-06T03:02:03;6.43;;;3.40;;
28728;SDS011;15894;50.452;30.446;2022-07-06T03:04:29;7.80;;;3.75;;
28728;SDS011;15894;50.452;30.446;2022-07-06T03:06:55;9.63;;;4.22;;
28728;SDS011;15894;50.452;30.446;2022-07-06T03:09:20;7.18;;;4.00;;
28728;SDS011;15894;50.452;30.446;2022-07-06T03:11:46;4.85;;;3.50;;
28728;SDS011;15894;50.452;30.446;2022-07-06T03:14:12;8.95;;;3.50;;
28728;SDS011;15894;50.452;30.446;2022-07-06T03:16:38;6.10;;;3.72;;
28728;SDS011;15894;50.452;30.446;2022-07-06T03:19:03;6.60;;;3.60;;
28728;SDS011;15894;50.452;30.446;2022-07-06T03:21:29;6.70;;;3.72;;
28728;SDS011;15894;50.452;30.446;2022-07-06T03:23:54;5.68;;;3.88;;
28728;SDS011;15894;50.452;30.446;2022-07-06T03:26:20;11.07;;;3.85;;
28728;SDS011;15894;50.452;30.446;2022-07-06T03:28:46;6.75;;;3.72;;
28728;SDS011;15894;50.452;30.446;2022-07-06T03:31:11;4.30;;;3.20;;
28728;SDS011;15894;50.452;30.446;2022-07-06T03:33:38;6.50;;;3.40;;
28728;SDS011;15894;50.452;30.446;2022-07-06T03:36:04;9.60;;;3.10;;
28728;SDS011;15894;50.452;30.446;2022-07-06T03:38:30;6.13;;;3.50;;
28728;SDS011;15894;50.452;30.446;2022-07-06T03:40:56;5.57;;;3.10;;
28728;SDS011;15894;50.452;30.446;2022-07-06T03:43:21;10.85;;;3.75;;
28728;SDS011;15894;50.452;30.446;2022-07-06T03:45:47;4.13;;;3.22;;
28728;SDS011;15894;50.452;30.446;2022-07-06T03:48:13;7.38;;;3.50;;
28728;SDS011;15894;50.452;30.446;2022-07-06T03:50:38;5.70;;;3.40;;
28728;SDS011;15894;50.452;30.446;2022-07-06T03:53:04;6.03;;;4.03;;
28728;SDS011;15894;50.452;30.446;2022-07-06T03:55:30;5.80;;;3.10;;
28728;SDS011;15894;50.452;30.446;2022-07-06T03:57:55;5.78;;;3.20;;
28728;SDS011;15894;50.452;30.446;2022-07-06T04:00:21;5.15;;;3.28;;
28728;SDS011;15894;50.452;30.446;2022-07-06T04:02:47;6.10;;;3.25;;
28728;SDS011;15894;50.452;30.446;2022-07-06T04:05:12;6.05;;;3.08;;
28728;SDS011;15894;50.452;30.446;2022-07-06T04:07:38;4.15;;;2.85;;
28728;SDS011;15894;50.452;30.446;2022-07-06T04:10:03;4.63;;;3.00;;
28728;SDS011;15894;50.452;30.446;2022-07-06T04:12:29;9.00;;;3.20;;
28728;SDS011;15894;50.452;30.446;2022-07-06T04:14:56;5.93;;;3.03;;
28728;SDS011;15894;50.452;30.446;2022-07-06T04:17:22;5.45;;;2.92;;
28728;SDS011;15894;50.452;30.446;2022-07-06T04:20:07;4.72;;;3.05;;
28728;SDS011;15894;50.452;30.446;2022-07-06T04:22:38;5.57;;;3.05;;
28728;SDS011;15894;50.452;30.446;2022-07-06T04:25:04;8.25;;;3.60;;
28728;SDS011;15894;50.452;30.446;2022-07-06T04:27:30;8.68;;;2.80;;
28728;SDS011;15894;50.452;30.446;2022-07-06T04:29:56;5.20;;;3.10;;
28728;SDS011;15894;50.452;30.446;2022-07-06T04:32:21;13.25;;;3.42;;
28728;SDS011;15894;50.452;30.446;2022-07-06T04:34:47;9.15;;;3.30;;
28728;SDS011;15894;50.452;30.446;2022-07-06T04:37:12;7.07;;;2.97;;
28728;SDS011;15894;50.452;30.446;2022-07-06T04:39:38;6.25;;;3.15;;
28728;SDS011;15894;50.452;30.446;2022-07-06T04:42:04;5.82;;;2.72;;
28728;SDS011;15894;50.452;30.446;2022-07-06T04:44:29;7.15;;;2.83;;
28728;SDS011;15894;50.452;30.446;2022-07-06T04:46:55;6.13;;;3.03;;
28728;SDS011;15894;50.452;30.446;2022-07-06T04:49:20;6.28;;;2.70;;
28728;SDS011;15894;50.452;30.446;2022-07-06T04:51:46;4.55;;;2.60;;
28728;SDS011;15894;50.452;30.446;2022-07-06T04:54:12;3.58;;;2.72;;
28728;SDS011;15894;50.452;30.446;2022-07-06T04:56:37;8.73;;;2.75;;
28728;SDS011;15894;50.452;30.446;2022-07-06T04:59:03;4.97;;;2.70;;
28728;SDS011;15894;50.452;30.446;2022-07-06T05:01:28;8.93;;;3.00;;
28728;SDS011;15894;50.452;30.446;2022-07-06T05:03:54;4.05;;;2.65;;
28728;SDS011;15894;50.452;30.446;2022-07-06T05:06:19;4.38;;;2.60;;
28728;SDS011;15894;50.452;30.446;2022-07-06T05:08:45;5.00;;;2.92;;
28728;SDS011;15894;50.452;30.446;2022-07-06T05:11:11;7.43;;;2.90;;
28728;SDS011;15894;50.452;30.446;2022-07-06T05:13:37;9.07;;;3.20;;
28728;SDS011;15894;50.452;30.446;2022-07-06T05:16:03;6.00;;;2.83;;
28728;SDS011;15894;50.452;30.446;2022-07-06T05:18:28;6.03;;;2.70;;
28728;SDS011;15894;50.452;30.446;2022-07-06T05:20:55;7.07;;;2.83;;
28728;SDS011;15894;50.452;30.446;2022-07-06T05:23:20;5.65;;;3.08;;
28728;SDS011;15894;50.452;30.446;2022-07-06T05:25:46;5.88;;;3.20;;
28728;SDS011;15894;50.452;30.446;2022-07-06T05:28:12;10.18;;;2.70;;
28728;SDS011;15894;50.452;30.446;2022-07-06T05:30:37;5.13;;;2.38;;
28728;SDS011;15894;50.452;30.446;2022-07-06T05:33:03;6.55;;;2.92;;
28728;SDS011;15894;50.452;30.446;2022-07-06T05:35:29;7.45;;;2.83;;
28728;SDS011;15894;50.452;30.446;2022-07-06T05:37:54;6.47;;;2.70;;
28728;SDS011;15894;50.452;30.446;2022-07-06T05:40:20;6.93;;;2.88;;
28728;SDS011;15894;50.452;30.446;2022-07-06T05:42:46;6.55;;;2.65;;
28728;SDS011;15894;50.452;30.446;2022-07-06T05:45:12;24.70;;;3.28;;
28728;SDS011;15894;50.452;30.446;2022-07-06T05:47:38;7.22;;;2.50;;
28728;SDS011;15894;50.452;30.446;2022-07-06T05:50:22;9.85;;;2.63;;
28728;SDS011;15894;50.452;30.446;2022-07-06T05:52:55;6.82;;;2.70;;
28728;SDS011;15894;50.452;30.446;2022-07-06T05:55:22;5.05;;;2.72;;
28728;SDS011;15894;50.452;30.446;2022-07-06T05:57:48;6.55;;;2.45;;
28728;SDS011;15894;50.452;30.446;2022-07-06T06:00:15;7.25;;;2.50;;
28728;SDS011;15894;50.452;30.446;2022-07-06T06:02:41;6.50;;;2.47;;
28728;SDS011;15894;50.452;30.446;2022-07-06T06:05:08;6.88;;;2.90;;
28728;SDS011;15894;50.452;30.446;2022-07-06T06:07:35;4.60;;;2.50;;
28728;SDS011;15894;50.452;30.446;2022-07-06T06:10:05;7.45;;;2.70;;
28728;SDS011;15894;50.452;30.446;2022-07-06T06:12:32;5.35;;;2.85;;
28728;SDS011;15894;50.452;30.446;2022-07-06T06:14:58;12.68;;;3.85;;
28728;SDS011;15894;50.452;30.446;2022-07-06T06:17:24;5.93;;;2.55;;
28728;SDS011;15894;50.452;30.446;2022-07-06T06:19:49;6.90;;;3.13;;
28728;SDS011;15894;50.452;30.446;2022-07-06T06:22:15;7.97;;;2.67;;
28728;SDS011;15894;50.452;30.446;2022-07-06T06:24:41;12.13;;;2.85;;
28728;SDS011;15894;50.452;30.446;2022-07-06T06:27:06;13.40;;;3.05;;
28728;SDS011;15894;50.452;30.446;2022-07-06T06:29:32;7.88;;;2.72;;
28728;SDS011;15894;50.452;30.446;2022-07-06T06:31:58;5.80;;;3.00;;
28728;SDS011;15894;50.452;30.446;2022-07-06T06:34:23;7.07;;;3.20;;
28728;SDS011;15894;50.452;30.446;2022-07-06T06:36:49;6.03;;;3.05;;
28728;SDS011;15894;50.452;30.446;2022-07-06T06:39:15;8.35;;;2.92;;
28728;SDS011;15894;50.452;30.446;2022-07-06T06:41:40;12.15;;;3.20;;
28728;SDS011;15894;50.452;30.446;2022-07-06T06:44:06;8.25;;;2.92;;
28728;SDS011;15894;50.452;30.446;2022-07-06T06:46:32;6.15;;;2.92;;
28728;SDS011;15894;50.452;30.446;2022-07-06T06:48:58;10.52;;;2.60;;
28728;SDS011;15894;50.452;30.446;2022-07-06T06:51:23;4.03;;;2.35;;
28728;SDS011;15894;50.452;30.446;2022-07-06T06:53:49;9.77;;;2.65;;
28728;SDS011;15894;50.452;30.446;2022-07-06T06:56:15;6.90;;;3.13;;
28728;SDS011;15894;50.452;30.446;2022-07-06T06:58:41;4.07;;;2.60;;
28728;SDS011;15894;50.452;30.446;2022-07-06T07:01:07;5.40;;;2.33;;
28728;SDS011;15894;50.452;30.446;2022-07-06T07:03:33;7.70;;;2.47;;
28728;SDS011;15894;50.452;30.446;2022-07-06T07:05:58;4.40;;;2.45;;
28728;SDS011;15894;50.452;30.446;2022-07-06T07:08:24;3.00;;;2.30;;
28728;SDS011;15894;50.452;30.446;2022-07-06T07:10:50;4.18;;;2.40;;
28728;SDS011;15894;50.452;30.446;2022-07-06T07:13:16;7.32;;;2.40;;
28728;SDS011;15894;50.452;30.446;2022-07-06T07:15:42;9.75;;;2.08;;
28728;SDS011;15894;50.452;30.446;2022-07-06T07:18:07;10.13;;;3.05;;
28728;SDS011;15894;50.452;30.446;2022-07-06T07:20:33;6.15;;;2.58;;
28728;SDS011;15894;50.452;30.446;2022-07-06T07:23:02;6.28;;;2.20;;
28728;SDS011;15894;50.452;30.446;2022-07-06T07:25:27;4.03;;;2.35;;
28728;SDS011;15894;50.452;30.446;2022-07-06T07:27:53;7.53;;;2.50;;
28728;SDS011;15894;50.452;30.446;2022-07-06T07:30:19;5.25;;;2.40;;
28728;SDS011;15894;50.452;30.446;2022-07-06T07:32:45;6.38;;;2.85;;
28728;SDS011;15894;50.452;30.446;2022-07-06T07:35:11;6.18;;;2.45;;
28728;SDS011;15894;50.452;30.446;2022-07-06T07:37:37;7.10;;;2.72;;
28728;SDS011;15894;50.452;30.446;2022-07-06T07:40:03;8.07;;;2.97;;
28728;SDS011;15894;50.452;30.446;2022-07-06T07:42:30;5.40;;;2.65;;
28728;SDS011;15894;50.452;30.446;2022-07-06T07:44:56;6.28;;;2.40;;
28728;SDS011;15894;50.452;30.446;2022-07-06T07:47:21;8.50;;;2.90;;
28728;SDS011;15894;50.452;30.446;2022-07-06T07:49:47;5.65;;;2.60;;
28728;SDS011;15894;50.452;30.446;2022-07-06T07:52:12;10.15;;;3.10;;
28728;SDS011;15894;50.452;30.446;2022-07-06T07:54:38;5.28;;;2.90;;
28728;SDS011;15894;50.452;30.446;2022-07-06T07:57:04;8.55;;;2.72;;
28728;SDS011;15894;50.452;30.446;2022-07-06T07:59:29;10.02;;;2.60;;
28728;SDS011;15894;50.452;30.446;2022-07-06T08:01:55;8.48;;;2.00;;
28728;SDS011;15894;50.452;30.446;2022-07-06T08:04:21;10.35;;;2.88;;
28728;SDS011;15894;50.452;30.446;2022-07-06T08:06:47;7.30;;;2.72;;
28728;SDS011;15894;50.452;30.446;2022-07-06T08:09:12;7.93;;;2.92;;
28728;SDS011;15894;50.452;30.446;2022-07-06T08:11:39;7.00;;;2.85;;
28728;SDS011;15894;50.452;30.446;2022-07-06T08:14:04;3.42;;;2.50;;
28728;SDS011;15894;50.452;30.446;2022-07-06T08:16:30;3.55;;;2.38;;
28728;SDS011;15894;50.452;30.446;2022-07-06T08:18:56;8.02;;;2.80;;
28728;SDS011;15894;50.452;30.446;2022-07-06T08:21:22;6.25;;;2.72;;
28728;SDS011;15894;50.452;30.446;2022-07-06T08:23:48;6.32;;;2.80;;
28728;SDS011;15894;50.452;30.446;2022-07-06T08:26:14;8.93;;;2.42;;
28728;SDS011;15894;50.452;30.446;2022-07-06T08:28:40;4.57;;;2.03;;
28728;SDS011;15894;50.452;30.446;2022-07-06T08:31:05;3.95;;;2.58;;
28728;SDS011;15894;50.452;30.446;2022-07-06T08:33:31;10.50;;;2.30;;
28728;SDS011;15894;50.452;30.446;2022-07-06T08:35:57;13.75;;;3.83;;
28728;SDS011;15894;50.452;30.446;2022-07-06T08:38:22;4.13;;;2.30;;
28728;SDS011;15894;50.452;30.446;2022-07-06T08:40:48;5.90;;;2.63;;
28728;SDS011;15894;50.452;30.446;2022-07-06T08:43:16;5.82;;;2.25;;
28728;SDS011;15894;50.452;30.446;2022-07-06T08:45:42;5.85;;;2.45;;
28728;SDS011;15894;50.452;30.446;2022-07-06T08:48:09;6.95;;;2.30;;
28728;SDS011;15894;50.452;30.446;2022-07-06T08:50:36;4.15;;;2.35;;
28728;SDS011;15894;50.452;30.446;2022-07-06T08:53:03;5.87;;;2.53;;
28728;SDS011;15894;50.452;30.446;2022-07-06T08:55:29;6.38;;;2.58;;
28728;SDS011;15894;50.452;30.446;2022-07-06T08:57:55;16.17;;;3.00;;
28728;SDS011;15894;50.452;30.446;2022-07-06T09:00:22;7.00;;;2.60;;
28728;SDS011;15894;50.452;30.446;2022-07-06T09:02:49;5.63;;;2.70;;
28728;SDS011;15894;50.452;30.446;2022-07-06T09:05:16;5.25;;;2.38;;
28728;SDS011;15894;50.452;30.446;2022-07-06T09:07:43;9.55;;;3.10;;
28728;SDS011;15894;50.452;30.446;2022-07-06T09:10:13;3.53;;;2.47;;
28728;SDS011;15894;50.452;30.446;2022-07-06T09:12:39;8.02;;;2.83;;
28728;SDS011;15894;50.452;30.446;2022-07-06T09:15:05;4.28;;;2.53;;
28728;SDS011;15894;50.452;30.446;2022-07-06T09:17:31;5.07;;;2.58;;
28728;SDS011;15894;50.452;30.446;2022-07-06T09:19:57;5.50;;;2.28;;
28728;SDS011;15894;50.452;30.446;2022-07-06T09:22:26;5.18;;;2.85;;
28728;SDS011;15894;50.452;30.446;2022-07-06T09:24:55;13.82;;;2.75;;
28728;SDS011;15894;50.452;30.446;2022-07-06T09:27:27;7.75;;;2.60;;
28728;SDS011;15894;50.452;30.446;2022-07-06T09:29:53;3.60;;;2.60;;
28728;SDS011;15894;50.452;30.446;2022-07-06T09:32:19;6.70;;;2.55;;
28728;SDS011;15894;50.452;30.446;2022-07-06T09:37:13;5.15;;;2.45;;
28728;SDS011;15894;50.452;30.446;2022-07-06T09:39:39;3.35;;;2.33;;
28728;SDS011;15894;50.452;30.446;2022-07-06T09:42:05;7.97;;;2.55;;
28728;SDS011;15894;50.452;30.446;2022-07-06T09:44:35;6.43;;;2.90;;
28728;SDS011;15894;50.452;30.446;2022-07-06T09:47:03;10.68;;;2.60;;
28728;SDS011;15894;50.452;30.446;2022-07-06T09:49:30;9.23;;;3.15;;
28728;SDS011;15894;50.452;30.446;2022-07-06T09:51:57;9.77;;;2.90;;
28728;SDS011;15894;50.452;30.446;2022-07-06T09:54:24;9.68;;;2.90;;
28728;SDS011;15894;50.452;30.446;2022-07-06T09:56:50;4.40;;;2.83;;
28728;SDS011;15894;50.452;30.446;2022-07-06T09:59:18;6.25;;;2.60;;
28728;SDS011;15894;50.452;30.446;2022-07-06T10:01:50;6.85;;;2.63;;
28728;SDS011;15894;50.452;30.446;2022-07-06T10:04:19;4.40;;;3.00;;
28728;SDS011;15894;50.452;30.446;2022-07-06T10:06:45;11.05;;;3.20;;
28728;SDS011;15894;50.452;30.446;2022-07-06T10:09:12;4.88;;;2.97;;
28728;SDS011;15894;50.452;30.446;2022-07-06T10:11:40;6.67;;;2.50;;
28728;SDS011;15894;50.452;30.446;2022-07-06T10:14:08;11.45;;;2.92;;
28728;SDS011;15894;50.452;30.446;2022-07-06T10:16:36;6.65;;;2.78;;
28728;SDS011;15894;50.452;30.446;2022-07-06T10:19:06;9.85;;;3.33;;
28728;SDS011;15894;50.452;30.446;2022-07-06T10:21:35;6.70;;;3.47;;
28728;SDS011;15894;50.452;30.446;2022-07-06T10:24:02;5.78;;;3.22;;
28728;SDS011;15894;50.452;30.446;2022-07-06T10:26:32;10.32;;;3.70;;
28728;SDS011;15894;50.452;30.446;2022-07-06T10:28:59;6.95;;;3.58;;
28728;SDS011;15894;50.452;30.446;2022-07-06T10:31:26;12.68;;;3.70;;
28728;SDS011;15894;50.452;30.446;2022-07-06T10:33:56;4.93;;;3.67;;
28728;SDS011;15894;50.452;30.446;2022-07-06T10:36:24;5.90;;;3.58;;
28728;SDS011;15894;50.452;30.446;2022-07-06T10:38:51;4.82;;;3.50;;
28728;SDS011;15894;50.452;30.446;2022-07-06T10:41:17;5.85;;;3.40;;
28728;SDS011;15894;50.452;30.446;2022-07-06T10:43:55;4.63;;;3.60;;
28728;SDS011;15894;50.452;30.446;2022-07-06T10:46:22;8.57;;;3.92;;
28728;SDS011;15894;50.452;30.446;2022-07-06T10:48:48;7.10;;;3.30;;
28728;SDS011;15894;50.452;30.446;2022-07-06T10:51:25;9.03;;;3.70;;
28728;SDS011;15894;50.452;30.446;2022-07-06T10:53:58;6.50;;;3.40;;
28728;SDS011;15894;50.452;30.446;2022-07-06T10:56:38;8.88;;;3.70;;
28728;SDS011;15894;50.452;30.446;2022-07-06T11:04:40;6.78;;;3.38;;
28728;SDS011;15894;50.452;30.446;2022-07-06T11:07:16;8.85;;;3.47;;
28728;SDS011;15894;50.452;30.446;2022-07-06T11:09:56;6.65;;;3.90;;
28728;SDS011;15894;50.452;30.446;2022-07-06T11:12:23;5.80;;;3.15;;
28728;SDS011;15894;50.452;30.446;2022-07-06T11:14:50;7.30;;;3.30;;
28728;SDS011;15894;50.452;30.446;2022-07-06T11:17:16;4.82;;;3.28;;
28728;SDS011;15894;50.452;30.446;2022-07-06T11:19:55;9.80;;;3.25;;
28728;SDS011;15894;50.452;30.446;2022-07-06T11:22:22;6.10;;;3.00;;
28728;SDS011;15894;50.452;30.446;2022-07-06T11:24:51;10.90;;;3.22;;
28728;SDS011;15894;50.452;30.446;2022-07-06T11:27:18;5.35;;;3.08;;
28728;SDS011;15894;50.452;30.446;2022-07-06T11:29:44;5.55;;;3.20;;
28728;SDS011;15894;50.452;30.446;2022-07-06T11:32:10;8.00;;;3.50;;
28728;SDS011;15894;50.452;30.446;2022-07-06T11:34:39;15.98;;;3.60;;
28728;SDS011;15894;50.452;30.446;2022-07-06T11:37:07;9.90;;;3.30;;
28728;SDS011;15894;50.452;30.446;2022-07-06T11:39:35;5.82;;;3.25;;
28728;SDS011;15894;50.452;30.446;2022-07-06T11:44:29;13.52;;;3.47;;
28728;SDS011;15894;50.452;30.446;2022-07-06T11:46:55;9.00;;;3.42;;
28728;SDS011;15894;50.452;30.446;2022-07-06T11:49:22;7.53;;;3.53;;
28728;SDS011;15894;50.452;30.446;2022-07-06T11:51:48;5.57;;;3.17;;
28728;SDS011;15894;50.452;30.446;2022-07-06T11:54:15;8.32;;;2.85;;
28728;SDS011;15894;50.452;30.446;2022-07-06T11:59:19;6.35;;;3.03;;
28728;SDS011;15894;50.452;30.446;2022-07-06T12:01:49;7.43;;;3.20;;
28728;SDS011;15894;50.452;30.446;2022-07-06T12:04:24;9.05;;;3.40;;
28728;SDS011;15894;50.452;30.446;2022-07-06T12:06:50;10.40;;;3.67;;
28728;SDS011;15894;50.452;30.446;2022-07-06T12:09:15;6.15;;;3.20;;
28728;SDS011;15894;50.452;30.446;2022-07-06T12:11:43;6.10;;;3.35;;
28728;SDS011;15894;50.452;30.446;2022-07-06T12:14:20;8.48;;;3.63;;
28728;SDS011;15894;50.452;30.446;2022-07-06T12:16:47;8.77;;;3.50;;
28728;SDS011;15894;50.452;30.446;2022-07-06T12:19:14;6.40;;;3.50;;
28728;SDS011;15894;50.452;30.446;2022-07-06T12:21:47;6.03;;;3.25;;
28728;SDS011;15894;50.452;30.446;2022-07-06T12:24:18;7.72;;;3.40;;
28728;SDS011;15894;50.452;30.446;2022-07-06T12:26:48;7.47;;;3.15;;
28728;SDS011;15894;50.452;30.446;2022-07-06T12:29:14;3.67;;;2.75;;
28728;SDS011;15894;50.452;30.446;2022-07-06T12:31:44;11.55;;;3.83;;
28728;SDS011;15894;50.452;30.446;2022-07-06T12:34:24;18.80;;;4.45;;
28728;SDS011;15894;50.452;30.446;2022-07-06T12:36:56;30.05;;;4.40;;
28728;SDS011;15894;50.452;30.446;2022-07-06T12:39:24;9.55;;;3.10;;
28728;SDS011;15894;50.452;30.446;2022-07-06T12:44:29;9.90;;;3.10;;
28728;SDS011;15894;50.452;30.446;2022-07-06T12:47:02;11.52;;;3.50;;
28728;SDS011;15894;50.452;30.446;2022-07-06T12:49:30;12.90;;;3.78;;
28728;SDS011;15894;50.452;30.446;2022-07-06T12:52:04;14.55;;;3.50;;
28728;SDS011;15894;50.452;30.446;2022-07-06T12:57:12;14.10;;;3.55;;
28728;SDS011;15894;50.452;30.446;2022-07-06T12:59:41;11.65;;;3.30;;
28728;SDS011;15894;50.452;30.446;2022-07-06T13:02:26;5.72;;;3.00;;
28728;SDS011;15894;50.452;30.446;2022-07-06T13:04:58;11.00;;;3.70;;
28728;SDS011;15894;50.452;30.446;2022-07-06T13:07:26;5.82;;;3.20;;
28728;SDS011;15894;50.452;30.446;2022-07-06T13:09:54;11.38;;;3.65;;
28728;SDS011;15894;50.452;30.446;2022-07-06T13:12:20;11.93;;;3.77;;
28728;SDS011;15894;50.452;30.446;2022-07-06T13:14:47;6.60;;;3.35;;
28728;SDS011;15894;50.452;30.446;2022-07-06T13:17:13;19.52;;;4.90;;
28728;SDS011;15894;50.452;30.446;2022-07-06T13:19:38;22.45;;;5.15;;
28728;SDS011;15894;50.452;30.446;2022-07-06T13:22:04;15.43;;;4.22;;
28728;SDS011;15894;50.452;30.446;2022-07-06T13:24:30;13.55;;;4.53;;
28728;SDS011;15894;50.452;30.446;2022-07-06T13:26:56;18.35;;;5.70;;
28728;SDS011;15894;50.452;30.446;2022-07-06T13:29:22;22.30;;;6.22;;
28728;SDS011;15894;50.452;30.446;2022-07-06T13:31:47;17.58;;;5.30;;
28728;SDS011;15894;50.452;30.446;2022-07-06T13:34:13;24.33;;;5.70;;
28728;SDS011;15894;50.452;30.446;2022-07-06T13:36:39;10.20;;;4.40;;
28728;SDS011;15894;50.452;30.446;2022-07-06T13:39:05;11.10;;;4.60;;
28728;SDS011;15894;50.452;30.446;2022-07-06T13:41:32;11.98;;;4.57;;
28728;SDS011;15894;50.452;30.446;2022-07-06T13:43:57;11.73;;;4.40;;
28728;SDS011;15894;50.452;30.446;2022-07-06T13:48:54;9.48;;;4.35;;
28728;SDS011;15894;50.452;30.446;2022-07-06T13:51:21;6.65;;;4.15;;
28728;SDS011;15894;50.452;30.446;2022-07-06T13:53:47;8.38;;;4.38;;
28728;SDS011;15894;50.452;30.446;2022-07-06T13:56:13;14.98;;;5.75;;
28728;SDS011;15894;50.452;30.446;2022-07-06T13:58:39;18.88;;;6.32;;
28728;SDS011;15894;50.452;30.446;2022-07-06T14:01:05;12.50;;;5.10;;
28728;SDS011;15894;50.452;30.446;2022-07-06T14:03:30;13.02;;;5.53;;
28728;SDS011;15894;50.452;30.446;2022-07-06T14:06:00;15.32;;;5.30;;
28728;SDS011;15894;50.452;30.446;2022-07-06T14:08:29;12.02;;;4.35;;
28728;SDS011;15894;50.452;30.446;2022-07-06T14:10:55;11.15;;;4.25;;
28728;SDS011;15894;50.452;30.446;2022-07-06T14:13:21;11.90;;;3.97;;
28728;SDS011;15894;50.452;30.446;2022-07-06T14:15:49;11.88;;;4.50;;
28728;SDS011;15894;50.452;30.446;2022-07-06T14:18:15;10.73;;;5.38;;
28728;SDS011;15894;50.452;30.446;2022-07-06T14:20:42;13.77;;;5.30;;
28728;SDS011;15894;50.452;30.446;2022-07-06T14:23:09;14.15;;;5.00;;
28728;SDS011;15894;50.452;30.446;2022-07-06T14:25:36;11.93;;;5.43;;
28728;SDS011;15894;50.452;30.446;2022-07-06T14:28:02;9.02;;;4.78;;
28728;SDS011;15894;50.452;30.446;2022-07-06T14:30:28;12.63;;;5.22;;
28728;SDS011;15894;50.452;30.446;2022-07-06T14:32:53;13.73;;;6.47;;
28728;SDS011;15894;50.452;30.446;2022-07-06T14:35:20;13.40;;;5.20;;
28728;SDS011;15894;50.452;30.446;2022-07-06T14:37:46;10.77;;;5.10;;
28728;SDS011;15894;50.452;30.446;2022-07-06T14:40:13;9.75;;;5.35;;
28728;SDS011;15894;50.452;30.446;2022-07-06T14:42:38;16.23;;;5.88;;
28728;SDS011;15894;50.452;30.446;2022-07-06T14:45:04;14.55;;;5.30;;
28728;SDS011;15894;50.452;30.446;2022-07-06T14:47:30;12.98;;;5.30;;
28728;SDS011;15894;50.452;30.446;2022-07-06T14:49:56;10.15;;;5.50;;